createdAt,value
2022-08-01T00:00:57.421Z,81.16
2022-08-01T00:02:00.469Z,81.22
2022-08-01T00:03:03.541Z,81.30
2022-08-01T00:04:06.397Z,81.46
2022-08-01T00:05:09.673Z,81.46
2022-08-01T00:06:12.750Z,81.55
2022-08-01T00:07:15.815Z,81.52
2022-08-01T00:08:18.761Z,81.61
2022-08-01T00:09:24.161Z,82.03
2022-08-01T00:10:27.672Z,81.94
2022-08-01T00:11:30.843Z,82.07
2022-08-01T00:12:33.793Z,82.22
2022-08-01T00:13:36.764Z,82.74
2022-08-01T00:14:39.844Z,82.52
2022-08-01T00:15:46.034Z,82.76
2022-08-01T00:16:57.234Z,82.68
2022-08-01T00:18:00.173Z,83.08
2022-08-01T00:19:03.110Z,82.90
2022-08-01T00:20:07.448Z,83.00
2022-08-01T00:21:10.597Z,83.11
2022-08-01T00:22:13.768Z,83.16
2022-08-01T00:23:16.658Z,83.27
2022-08-01T00:24:19.526Z,83.36
2022-08-01T00:25:22.393Z,83.37
2022-08-01T00:26:37.590Z,83.31
2022-08-01T00:27:40.854Z,83.49
2022-08-01T00:28:43.725Z,83.53
2022-08-01T00:30:11.137Z,83.88
2022-08-01T00:31:09.627Z,83.91
2022-08-01T00:32:12.558Z,83.86
2022-08-01T00:33:15.741Z,84.17
2022-08-01T00:34:18.572Z,83.99
2022-08-01T00:35:21.483Z,83.92
2022-08-01T00:36:24.489Z,83.90
2022-08-01T00:37:27.309Z,83.89
2022-08-01T00:38:30.436Z,83.76
2022-08-01T00:39:34.208Z,84.30
2022-08-01T00:40:37.164Z,84.08
2022-08-01T00:41:40.032Z,84.10
2022-08-01T00:42:43.789Z,84.33
2022-08-01T00:43:47.086Z,84.17
2022-08-01T00:44:50.348Z,84.17
2022-08-01T00:45:53.250Z,84.26
2022-08-01T00:46:56.152Z,84.27
2022-08-01T00:47:59.045Z,84.14
2022-08-01T00:49:02.665Z,84.23
2022-08-01T00:50:06.069Z,84.30
2022-08-01T00:51:09.464Z,84.37
2022-08-01T00:52:12.567Z,84.33
2022-08-01T00:53:19.044Z,84.37
2022-08-01T00:54:22.471Z,84.39
2022-08-01T00:55:25.415Z,84.53
2022-08-01T00:56:28.789Z,84.28
2022-08-01T00:58:02.491Z,84.16
2022-08-01T00:58:56.209Z,84.30
2022-08-01T00:59:59.641Z,84.28
2022-08-01T01:01:03.010Z,84.18
2022-08-01T01:02:15.023Z,84.30
2022-08-01T01:03:19.080Z,84.11
2022-08-01T01:04:21.922Z,83.97
2022-08-01T01:05:25.270Z,84.02
2022-08-01T01:06:43.168Z,84.04
2022-08-01T01:07:51.545Z,83.87
2022-08-01T01:08:54.420Z,83.83
2022-08-01T01:09:59.905Z,83.71
2022-08-01T01:11:08.266Z,83.82
2022-08-01T01:12:17.752Z,83.68
2022-08-01T01:13:36.507Z,83.43
2022-08-01T01:15:11.105Z,83.66
2022-08-01T01:16:15.639Z,83.65
2022-08-01T01:17:50.659Z,83.65
2022-08-01T01:19:05.815Z,83.72
2022-08-01T01:20:12.467Z,83.75
2022-08-01T01:21:18.757Z,83.50
2022-08-01T01:22:40.480Z,83.75
2022-08-01T01:24:02.152Z,83.73
2022-08-01T01:25:23.520Z,83.86
2022-08-01T01:26:32.751Z,83.75
2022-08-01T01:27:41.630Z,83.72
2022-08-01T01:29:03.293Z,83.76
2022-08-01T01:30:07.162Z,83.63
2022-08-01T01:32:51.385Z,83.72
2022-08-01T01:33:55.185Z,83.67
2022-08-01T01:35:01.060Z,83.52
2022-08-01T01:36:07.512Z,83.82
2022-08-01T01:37:17.127Z,83.81
2022-08-01T01:38:24.432Z,83.92
2022-08-01T01:39:28.002Z,84.07
2022-08-01T01:40:31.388Z,84.19
2022-08-01T01:41:37.716Z,84.15
2022-08-01T01:42:42.332Z,84.02
2022-08-01T01:43:46.170Z,84.30
2022-08-01T01:44:50.687Z,84.46
2022-08-01T01:45:54.497Z,84.40
2022-08-01T01:46:57.565Z,84.51
2022-08-01T01:48:02.069Z,84.60
2022-08-01T01:49:06.573Z,84.74
2022-08-01T01:50:10.180Z,84.54
2022-08-01T01:51:14.275Z,84.63
2022-08-01T01:52:20.728Z,84.49
2022-08-01T01:53:24.098Z,84.81
2022-08-01T01:54:30.956Z,84.62
2022-08-01T01:55:49.371Z,84.74
2022-08-01T01:56:53.388Z,84.97
2022-08-01T01:57:57.764Z,84.91
2022-08-01T01:59:02.943Z,84.87
2022-08-01T02:00:08.053Z,84.94
2022-08-01T02:01:14.680Z,85.11
2022-08-01T02:02:18.969Z,85.48
2022-08-01T02:03:22.628Z,85.31
2022-08-01T02:04:26.949Z,85.19
2022-08-01T02:05:31.116Z,85.42
2022-08-01T02:06:34.671Z,85.62
2022-08-01T02:07:38.077Z,85.55
2022-08-01T02:08:41.742Z,85.54
2022-08-01T02:09:45.115Z,85.70
2022-08-01T02:11:07.651Z,85.63
2022-08-01T02:12:14.182Z,85.65
2022-08-01T02:13:17.545Z,85.49
2022-08-01T02:14:24.799Z,85.72
2022-08-01T02:15:29.076Z,85.81
2022-08-01T02:16:36.857Z,85.79
2022-08-01T02:17:43.046Z,85.74
2022-08-01T02:18:46.055Z,85.65
2022-08-01T02:19:49.673Z,85.55
2022-08-01T02:20:53.791Z,85.93
2022-08-01T02:21:58.422Z,85.98
2022-08-01T02:23:05.462Z,86.31
2022-08-01T02:24:15.261Z,86.09
2022-08-01T02:25:26.353Z,86.55
2022-08-01T02:26:29.646Z,86.40
2022-08-01T02:27:35.887Z,86.67
2022-08-01T02:28:48.718Z,86.47
2022-08-01T02:29:54.197Z,86.43
2022-08-01T02:31:01.480Z,86.45
2022-08-01T02:32:05.999Z,86.56
2022-08-01T02:33:32.864Z,86.43
2022-08-01T02:34:36.814Z,86.64
2022-08-01T02:36:31.611Z,86.32
2022-08-01T02:37:05.729Z,86.45
2022-08-01T02:38:10.693Z,86.52
2022-08-01T02:39:14.598Z,86.55
2022-08-01T02:40:18.771Z,86.67
2022-08-01T02:41:23.071Z,86.47
2022-08-01T02:42:30.874Z,86.45
2022-08-01T02:43:35.088Z,86.44
2022-08-01T02:44:40.531Z,86.44
2022-08-01T02:45:45.974Z,86.56
2022-08-01T02:46:52.348Z,86.48
2022-08-01T02:47:58.792Z,86.36
2022-08-01T02:49:04.433Z,86.45
2022-08-01T02:50:09.297Z,86.40
2022-08-01T02:51:13.190Z,86.72
2022-08-01T02:52:17.237Z,86.67
2022-08-01T02:53:22.364Z,86.58
2022-08-01T02:54:46.747Z,86.50
2022-08-01T02:55:49.982Z,86.43
2022-08-01T02:56:53.787Z,86.30
2022-08-01T02:57:59.934Z,86.67
2022-08-01T02:59:07.623Z,86.34
2022-08-01T03:00:13.132Z,86.46
2022-08-01T03:01:18.482Z,86.43
2022-08-01T03:02:24.134Z,86.30
2022-08-01T03:03:27.219Z,86.40
2022-08-01T03:04:31.246Z,86.20
2022-08-01T03:05:35.856Z,86.27
2022-08-01T03:06:39.357Z,86.13
2022-08-01T03:07:43.373Z,86.24
2022-08-01T03:08:47.799Z,86.09
2022-08-01T03:09:51.382Z,86.36
2022-08-01T03:10:55.082Z,86.46
2022-08-01T03:11:59.959Z,86.28
2022-08-01T03:13:04.581Z,86.20
2022-08-01T03:14:08.807Z,86.16
2022-08-01T03:15:13.178Z,86.11
2022-08-01T03:16:16.617Z,86.08
2022-08-01T03:17:20.159Z,86.33
2022-08-01T03:18:25.402Z,86.03
2022-08-01T03:19:28.889Z,86.43
2022-08-01T03:20:33.812Z,86.31
2022-08-01T03:21:38.243Z,86.49
2022-08-01T03:22:43.397Z,86.10
2022-08-01T03:23:46.834Z,86.05
2022-08-01T03:24:52.373Z,86.29
2022-08-01T03:25:55.885Z,86.20
2022-08-01T03:26:59.314Z,86.50
2022-08-01T03:28:04.342Z,86.33
2022-08-01T03:29:10.866Z,86.55
2022-08-01T03:30:14.138Z,86.24
2022-08-01T03:31:17.322Z,86.15
2022-08-01T03:32:21.705Z,86.19
2022-08-01T03:33:24.689Z,86.32
2022-08-01T03:34:28.517Z,86.54
2022-08-01T03:35:33.195Z,86.33
2022-08-01T03:36:43.053Z,86.58
2022-08-01T03:38:14.329Z,86.40
2022-08-01T03:39:12.069Z,86.47
2022-08-01T03:40:18.480Z,86.43
2022-08-01T03:41:26.344Z,86.47
2022-08-01T03:42:33.581Z,86.58
2022-08-01T03:43:42.624Z,86.50
2022-08-01T03:44:54.025Z,86.55
2022-08-01T03:45:59.297Z,86.69
2022-08-01T03:47:05.212Z,86.88
2022-08-01T03:48:14.268Z,86.71
2022-08-01T03:49:22.744Z,86.75
2022-08-01T03:50:26.236Z,86.58
2022-08-01T03:51:31.048Z,86.65
2022-08-01T03:52:35.306Z,86.73
2022-08-01T03:53:40.782Z,86.67
2022-08-01T03:54:47.874Z,86.70
2022-08-01T03:55:51.817Z,86.72
2022-08-01T03:56:55.689Z,87.06
2022-08-01T03:57:59.782Z,87.01
2022-08-01T03:59:04.297Z,86.84
2022-08-01T04:00:09.460Z,87.08
2022-08-01T04:01:18.541Z,87.11
2022-08-01T04:02:22.904Z,87.07
2022-08-01T04:03:26.294Z,87.01
2022-08-01T04:04:29.760Z,87.13
2022-08-01T04:05:32.738Z,87.23
2022-08-01T04:06:38.374Z,87.17
2022-08-01T04:07:43.988Z,86.93
2022-08-01T04:08:56.561Z,87.12
2022-08-01T04:09:59.955Z,87.00
2022-08-01T04:11:02.958Z,86.85
2022-08-01T04:12:10.156Z,86.94
2022-08-01T04:13:15.692Z,86.74
2022-08-01T04:14:18.667Z,86.77
2022-08-01T04:15:21.984Z,86.60
2022-08-01T04:16:24.890Z,86.63
2022-08-01T04:17:27.831Z,86.34
2022-08-01T04:18:30.836Z,86.42
2022-08-01T04:19:33.718Z,86.09
2022-08-01T04:20:36.689Z,86.08
2022-08-01T04:21:39.712Z,86.09
2022-08-01T04:22:43.190Z,85.97
2022-08-01T04:23:47.773Z,85.78
2022-08-01T04:24:57.407Z,85.69
2022-08-01T04:26:00.935Z,85.68
2022-08-01T04:27:06.250Z,85.57
2022-08-01T04:28:12.212Z,85.58
2022-08-01T04:29:17.013Z,85.34
2022-08-01T04:30:31.398Z,85.27
2022-08-01T04:31:35.518Z,85.12
2022-08-01T04:32:39.906Z,84.97
2022-08-01T04:33:46.590Z,84.85
2022-08-01T04:34:50.540Z,84.80
2022-08-01T04:36:03.653Z,84.79
2022-08-01T04:37:09.749Z,84.73
2022-08-01T04:38:15.261Z,84.56
2022-08-01T04:39:19.014Z,84.51
2022-08-01T04:40:27.252Z,84.48
2022-08-01T04:41:31.386Z,84.24
2022-08-01T04:42:34.411Z,84.18
2022-08-01T04:43:37.961Z,83.98
2022-08-01T04:44:41.534Z,83.86
2022-08-01T04:45:47.817Z,83.90
2022-08-01T04:46:51.764Z,83.87
2022-08-01T04:47:55.312Z,83.94
2022-08-01T04:48:58.685Z,83.73
2022-08-01T04:50:01.823Z,83.60
2022-08-01T04:51:05.629Z,83.56
2022-08-01T04:52:10.901Z,83.53
2022-08-01T04:53:17.835Z,83.54
2022-08-01T04:54:22.540Z,83.37
2022-08-01T04:55:25.481Z,83.39
2022-08-01T04:56:28.512Z,83.39
2022-08-01T04:57:31.813Z,83.37
2022-08-01T04:58:34.936Z,83.17
2022-08-01T04:59:42.487Z,83.20
2022-08-01T05:00:45.545Z,83.12
2022-08-01T05:01:52.076Z,83.03
2022-08-01T05:02:55.105Z,82.99
2022-08-01T05:03:58.000Z,82.91
2022-08-01T05:05:00.913Z,82.84
2022-08-01T05:06:03.959Z,82.78
2022-08-01T05:07:07.538Z,82.61
2022-08-01T05:08:11.146Z,82.70
2022-08-01T05:09:14.239Z,82.48
2022-08-01T05:10:17.178Z,82.47
2022-08-01T05:11:22.538Z,82.44
2022-08-01T05:12:25.645Z,82.36
2022-08-01T05:13:28.563Z,82.35
2022-08-01T05:14:34.121Z,82.31
2022-08-01T05:15:39.966Z,82.31
2022-08-01T05:16:43.036Z,82.20
2022-08-01T05:17:46.210Z,82.23
2022-08-01T05:18:49.545Z,82.19
2022-08-01T05:19:52.904Z,82.11
2022-08-01T05:20:56.021Z,82.09
2022-08-01T05:22:00.302Z,81.99
2022-08-01T05:23:03.931Z,81.98
2022-08-01T05:24:06.855Z,81.99
2022-08-01T05:25:09.871Z,81.99
2022-08-01T05:26:15.123Z,81.88
2022-08-01T05:27:18.707Z,81.86
2022-08-01T05:28:22.358Z,81.87
2022-08-01T05:29:25.423Z,81.82
2022-08-01T05:30:28.312Z,81.87
2022-08-01T05:31:31.393Z,81.94
2022-08-01T05:32:34.322Z,81.92
2022-08-01T05:33:37.332Z,81.93
2022-08-01T05:34:40.311Z,81.73
2022-08-01T05:35:49.092Z,81.59
2022-08-01T05:36:56.926Z,81.50
2022-08-01T05:38:00.962Z,81.36
2022-08-01T05:39:04.109Z,81.14
2022-08-01T05:40:07.299Z,81.15
2022-08-01T05:41:11.165Z,81.00
2022-08-01T05:42:14.074Z,80.90
2022-08-01T05:43:17.336Z,80.56
2022-08-01T05:44:20.563Z,80.65
2022-08-01T05:45:23.606Z,80.41
2022-08-01T05:46:26.861Z,80.29
2022-08-01T05:47:30.645Z,80.26
2022-08-01T05:48:33.658Z,80.19
2022-08-01T05:49:36.626Z,80.02
2022-08-01T05:50:39.655Z,80.03
2022-08-01T05:51:42.663Z,80.01
2022-08-01T05:52:45.545Z,79.97
2022-08-01T05:53:48.631Z,79.65
2022-08-01T05:54:51.601Z,79.46
2022-08-01T05:55:54.471Z,79.23
2022-08-01T05:57:00.606Z,79.03
2022-08-01T05:58:03.849Z,79.08
2022-08-01T05:59:06.799Z,78.85
2022-08-01T06:00:10.866Z,78.80
2022-08-01T06:01:17.348Z,78.42
2022-08-01T06:02:20.479Z,78.50
2022-08-01T06:03:23.470Z,78.17
2022-08-01T06:04:26.493Z,77.81
2022-08-01T06:05:29.581Z,77.66
2022-08-01T06:06:32.497Z,77.50
2022-08-01T06:07:35.510Z,77.28
2022-08-01T06:08:41.690Z,76.95
2022-08-01T06:09:44.653Z,76.76
2022-08-01T06:10:49.091Z,76.59
2022-08-01T06:11:52.144Z,76.66
2022-08-01T06:12:55.049Z,76.65
2022-08-01T06:13:57.969Z,76.46
2022-08-01T06:15:00.938Z,76.29
2022-08-01T06:16:04.062Z,76.11
2022-08-01T06:17:06.926Z,76.09
2022-08-01T06:18:09.861Z,75.99
2022-08-01T06:19:12.754Z,75.85
2022-08-01T06:20:16.318Z,75.68
2022-08-01T06:21:19.311Z,75.49
2022-08-01T06:22:22.426Z,75.32
2022-08-01T06:23:31.897Z,75.07
2022-08-01T06:24:35.935Z,74.85
2022-08-01T06:25:38.893Z,74.74
2022-08-01T06:26:41.886Z,74.49
2022-08-01T06:27:45.183Z,74.31
2022-08-01T06:28:48.309Z,74.23
2022-08-01T06:29:54.507Z,74.27
2022-08-01T06:30:59.574Z,74.08
2022-08-01T06:32:03.098Z,73.54
2022-08-01T06:33:06.356Z,73.43
2022-08-01T06:34:09.358Z,73.24
2022-08-01T06:35:12.768Z,72.77
2022-08-01T06:36:15.593Z,72.40
2022-08-01T06:37:19.315Z,72.26
2022-08-01T06:38:22.352Z,71.87
2022-08-01T06:39:25.305Z,71.53
2022-08-01T06:40:28.219Z,71.31
2022-08-01T06:41:31.115Z,71.05
2022-08-01T06:42:36.666Z,70.38
2022-08-01T06:43:39.588Z,70.32
2022-08-01T06:44:42.564Z,70.24
2022-08-01T06:45:45.499Z,70.02
2022-08-01T06:46:48.701Z,69.61
2022-08-01T06:47:51.858Z,69.51
2022-08-01T06:48:54.911Z,68.91
2022-08-01T06:49:58.036Z,69.24
2022-08-01T06:51:09.911Z,69.24
2022-08-01T06:52:12.878Z,69.32
2022-08-01T06:53:15.893Z,69.09
2022-08-01T06:54:18.858Z,69.02
2022-08-01T06:55:21.941Z,69.00
2022-08-01T06:56:24.777Z,68.90
2022-08-01T06:57:27.909Z,68.86
2022-08-01T06:58:31.814Z,68.70
2022-08-01T06:59:35.048Z,68.70
2022-08-01T07:00:38.081Z,68.49
2022-08-01T07:01:41.073Z,67.95
2022-08-01T07:02:44.501Z,68.19
2022-08-01T07:03:52.366Z,68.07
2022-08-01T07:05:01.159Z,67.64
2022-08-01T07:06:04.476Z,67.53
2022-08-01T07:07:07.476Z,67.24
2022-08-01T07:08:10.603Z,66.77
2022-08-01T07:09:14.685Z,66.76
2022-08-01T07:10:18.020Z,66.65
2022-08-01T07:11:21.301Z,66.61
2022-08-01T07:12:24.233Z,66.85
2022-08-01T07:13:44.068Z,66.11
2022-08-01T07:14:48.847Z,66.12
2022-08-01T07:15:52.650Z,66.31
2022-08-01T07:16:55.542Z,66.07
2022-08-01T07:17:59.895Z,66.31
2022-08-01T07:19:02.868Z,66.04
2022-08-01T07:20:06.953Z,65.71
2022-08-01T07:21:16.554Z,65.64
2022-08-01T07:22:37.165Z,65.61
2022-08-01T07:23:40.170Z,65.39
2022-08-01T07:24:49.047Z,65.47
2022-08-01T07:26:00.911Z,65.58
2022-08-01T07:27:23.144Z,65.70
2022-08-01T07:28:26.894Z,65.50
2022-08-01T07:29:29.812Z,65.61
2022-08-01T07:30:32.737Z,65.75
2022-08-01T07:31:35.965Z,65.62
2022-08-01T07:32:38.864Z,64.92
2022-08-01T07:33:48.951Z,64.37
2022-08-01T07:34:52.372Z,64.14
2022-08-01T07:35:55.584Z,64.03
2022-08-01T07:36:58.549Z,64.07
2022-08-01T07:38:01.622Z,64.16
2022-08-01T07:39:04.586Z,63.45
2022-08-01T07:40:07.921Z,63.51
2022-08-01T07:41:11.034Z,62.75
2022-08-01T07:42:14.436Z,63.14
2022-08-01T07:43:17.552Z,63.22
2022-08-01T07:44:20.469Z,63.33
2022-08-01T07:45:23.437Z,63.38
2022-08-01T07:46:26.341Z,63.37
2022-08-01T07:47:29.482Z,63.26
2022-08-01T07:48:33.008Z,62.98
2022-08-01T07:49:40.463Z,62.97
2022-08-01T07:50:43.917Z,62.97
2022-08-01T07:52:03.355Z,63.08
2022-08-01T07:53:07.690Z,62.49
2022-08-01T07:54:10.599Z,62.49
2022-08-01T07:55:16.449Z,62.41
2022-08-01T07:56:19.997Z,62.27
2022-08-01T07:57:23.215Z,62.00
2022-08-01T07:58:26.257Z,61.75
2022-08-01T07:59:29.220Z,61.91
2022-08-01T08:00:32.319Z,61.78
2022-08-01T08:01:35.280Z,61.66
2022-08-01T08:02:38.264Z,61.53
2022-08-01T08:03:41.367Z,61.51
2022-08-01T08:04:48.530Z,60.86
2022-08-01T08:06:00.103Z,61.12
2022-08-01T08:07:04.289Z,60.74
2022-08-01T08:08:08.118Z,60.65
2022-08-01T08:09:11.453Z,60.46
2022-08-01T08:10:14.660Z,60.41
2022-08-01T08:11:17.736Z,60.12
2022-08-01T08:12:28.877Z,60.32
2022-08-01T08:13:33.059Z,60.43
2022-08-01T08:14:36.046Z,60.05
2022-08-01T08:15:39.734Z,60.49
2022-08-01T08:16:43.948Z,60.28
2022-08-01T08:17:46.807Z,60.31
2022-08-01T08:18:57.948Z,60.28
2022-08-01T08:20:01.001Z,59.97
2022-08-01T08:21:06.827Z,60.16
2022-08-01T08:22:10.737Z,60.13
2022-08-01T08:23:43.166Z,59.50
2022-08-01T08:24:47.151Z,58.83
2022-08-01T08:25:50.330Z,58.72
2022-08-01T08:26:54.849Z,59.03
2022-08-01T08:27:57.898Z,59.09
2022-08-01T08:29:00.803Z,59.22
2022-08-01T08:30:04.070Z,58.84
2022-08-01T08:31:07.249Z,59.02
2022-08-01T08:32:11.023Z,59.46
2022-08-01T08:33:14.497Z,59.48
2022-08-01T08:34:17.795Z,59.42
2022-08-01T08:35:23.314Z,59.34
2022-08-01T08:36:47.654Z,59.47
2022-08-01T08:37:51.050Z,59.59
2022-08-01T08:39:02.341Z,59.50
2022-08-01T08:40:05.850Z,58.79
2022-08-01T08:41:09.401Z,58.89
2022-08-01T08:42:13.117Z,58.85
2022-08-01T08:43:17.152Z,59.05
2022-08-01T08:44:21.255Z,59.02
2022-08-01T08:45:44.574Z,58.11
2022-08-01T08:46:48.501Z,57.43
2022-08-01T08:47:52.443Z,57.73
2022-08-01T08:48:56.293Z,57.39
2022-08-01T08:50:00.188Z,57.68
2022-08-01T08:51:03.281Z,57.19
2022-08-01T08:52:06.353Z,56.18
2022-08-01T08:53:18.345Z,56.55
2022-08-01T08:54:31.335Z,56.33
2022-08-01T08:55:34.714Z,56.35
2022-08-01T08:56:58.514Z,56.67
2022-08-01T08:58:03.563Z,56.46
2022-08-01T08:59:06.591Z,56.23
2022-08-01T09:00:10.781Z,56.32
2022-08-01T09:01:13.903Z,56.34
2022-08-01T09:02:16.829Z,56.04
2022-08-01T09:03:19.995Z,56.09
2022-08-01T09:04:26.728Z,56.31
2022-08-01T09:05:39.207Z,55.88
2022-08-01T09:06:42.456Z,55.98
2022-08-01T09:07:45.301Z,55.56
2022-08-01T09:08:48.320Z,55.27
2022-08-01T09:09:51.569Z,55.29
2022-08-01T09:10:54.866Z,55.26
2022-08-01T09:11:58.166Z,55.12
2022-08-01T09:13:04.162Z,55.26
2022-08-01T09:14:14.783Z,55.58
2022-08-01T09:15:38.291Z,55.61
2022-08-01T09:16:47.949Z,55.48
2022-08-01T09:17:51.720Z,55.28
2022-08-01T09:18:54.593Z,55.40
2022-08-01T09:19:59.068Z,55.17
2022-08-01T09:21:09.078Z,55.06
2022-08-01T09:22:13.326Z,54.83
2022-08-01T09:23:35.564Z,54.56
2022-08-01T09:24:38.819Z,55.15
2022-08-01T09:25:56.749Z,55.41
2022-08-01T09:27:03.566Z,54.80
2022-08-01T09:28:07.988Z,54.62
2022-08-01T09:29:37.854Z,54.43
2022-08-01T09:30:41.786Z,54.63
2022-08-01T09:31:47.996Z,54.70
2022-08-01T09:32:55.483Z,54.59
2022-08-01T09:34:00.006Z,54.29
2022-08-01T09:35:23.121Z,54.30
2022-08-01T09:36:27.143Z,54.62
2022-08-01T09:37:36.992Z,54.60
2022-08-01T09:38:43.911Z,54.14
2022-08-01T09:39:55.789Z,54.44
2022-08-01T09:40:59.758Z,54.52
2022-08-01T09:42:28.748Z,54.56
2022-08-01T09:43:32.880Z,54.43
2022-08-01T09:44:44.732Z,54.56
2022-08-01T09:45:58.367Z,54.39
2022-08-01T09:47:07.796Z,54.06
2022-08-01T09:48:13.080Z,53.79
2022-08-01T09:49:16.117Z,54.17
2022-08-01T09:50:19.914Z,54.17
2022-08-01T09:51:58.917Z,54.08
2022-08-01T09:52:57.983Z,54.09
2022-08-01T09:54:01.594Z,54.29
2022-08-01T09:55:06.087Z,53.97
2022-08-01T09:56:12.959Z,53.56
2022-08-01T09:57:17.253Z,53.91
2022-08-01T09:58:21.541Z,53.40
2022-08-01T09:59:56.664Z,52.84
2022-08-01T10:01:05.254Z,52.77
2022-08-01T10:02:08.696Z,52.40
2022-08-01T10:03:25.577Z,52.37
2022-08-01T10:04:28.695Z,52.40
2022-08-01T10:05:32.460Z,52.55
2022-08-01T10:06:43.734Z,53.16
2022-08-01T10:07:58.233Z,53.45
2022-08-01T10:09:01.906Z,52.76
2022-08-01T10:10:12.222Z,53.10
2022-08-01T10:11:16.566Z,53.32
2022-08-01T10:12:21.974Z,53.18
2022-08-01T10:13:25.247Z,53.44
2022-08-01T10:14:40.028Z,53.52
2022-08-01T10:15:44.096Z,53.77
2022-08-01T10:16:53.217Z,53.88
2022-08-01T10:18:00.272Z,53.59
2022-08-01T10:19:14.637Z,53.45
2022-08-01T10:20:30.238Z,53.65
2022-08-01T10:21:57.413Z,53.81
2022-08-01T10:23:06.273Z,53.62
2022-08-01T10:24:10.651Z,53.20
2022-08-01T10:25:17.691Z,53.33
2022-08-01T10:26:41.213Z,51.32
2022-08-01T10:27:46.545Z,50.94
2022-08-01T10:28:51.198Z,51.60
2022-08-01T10:30:08.602Z,52.10
2022-08-01T10:31:20.449Z,52.54
2022-08-01T10:32:35.900Z,52.22
2022-08-01T10:33:51.172Z,51.66
2022-08-01T10:34:57.189Z,51.98
2022-08-01T10:36:00.226Z,51.82
2022-08-01T10:37:05.518Z,51.44
2022-08-01T10:38:10.846Z,51.51
2022-08-01T10:39:20.090Z,51.21
2022-08-01T10:40:31.591Z,51.09
2022-08-01T10:41:35.463Z,51.25
2022-08-01T10:42:40.156Z,51.63
2022-08-01T10:43:46.952Z,51.27
2022-08-01T10:44:50.677Z,50.48
2022-08-01T10:45:55.192Z,50.75
2022-08-01T10:47:03.568Z,50.68
2022-08-01T10:48:12.776Z,50.54
2022-08-01T10:49:17.873Z,50.55
2022-08-01T10:50:28.644Z,50.47
2022-08-01T10:51:52.726Z,50.27
2022-08-01T10:53:15.204Z,49.80
2022-08-01T10:54:20.005Z,49.54
2022-08-01T10:55:24.328Z,49.55
2022-08-01T10:56:39.668Z,50.13
2022-08-01T10:57:43.816Z,49.87
2022-08-01T10:59:06.748Z,49.73
2022-08-01T11:00:19.328Z,50.04
2022-08-01T11:01:22.374Z,49.87
2022-08-01T11:02:33.082Z,49.25
2022-08-01T11:03:56.018Z,49.54
2022-08-01T11:05:02.715Z,48.63
2022-08-01T11:06:08.330Z,48.62
2022-08-01T11:07:17.958Z,48.19
2022-08-01T11:08:22.745Z,46.89
2022-08-01T11:09:41.480Z,46.77
2022-08-01T11:10:44.543Z,47.75
2022-08-01T11:11:59.076Z,47.50
2022-08-01T11:13:06.756Z,47.82
2022-08-01T11:14:13.902Z,47.87
2022-08-01T11:15:29.612Z,47.26
2022-08-01T11:16:35.166Z,46.33
2022-08-01T11:17:54.952Z,46.21
2022-08-01T11:18:58.185Z,46.72
2022-08-01T11:20:11.362Z,47.06
2022-08-01T11:21:57.405Z,47.11
2022-08-01T11:22:58.557Z,47.30
2022-08-01T11:24:01.940Z,47.05
2022-08-01T11:25:05.044Z,46.58
2022-08-01T11:26:10.321Z,47.01
2022-08-01T11:27:23.530Z,47.08
2022-08-01T11:28:32.697Z,46.84
2022-08-01T11:29:38.167Z,46.91
2022-08-01T11:30:41.633Z,46.63
2022-08-01T11:31:45.207Z,46.86
2022-08-01T11:33:11.336Z,46.37
2022-08-01T11:34:15.726Z,46.42
2022-08-01T11:35:20.621Z,46.04
2022-08-01T11:36:55.795Z,45.70
2022-08-01T11:37:46.889Z,45.16
2022-08-01T11:38:49.906Z,45.08
2022-08-01T11:40:18.914Z,45.27
2022-08-01T11:41:37.108Z,44.84
2022-08-01T11:42:40.923Z,44.58
2022-08-01T11:44:03.954Z,44.44
2022-08-01T11:45:13.316Z,44.60
2022-08-01T11:46:18.540Z,44.86
2022-08-01T11:47:41.369Z,44.75
2022-08-01T11:48:44.334Z,45.03
2022-08-01T11:49:49.906Z,45.30
2022-08-01T11:50:54.202Z,45.14
2022-08-01T11:52:01.412Z,45.11
2022-08-01T11:53:08.312Z,45.22
2022-08-01T11:54:11.211Z,44.86
2022-08-01T11:55:16.767Z,44.99
2022-08-01T11:56:20.052Z,44.51
2022-08-01T11:57:34.117Z,44.28
2022-08-01T11:58:37.896Z,43.74
2022-08-01T12:00:02.733Z,42.51
2022-08-01T12:01:15.812Z,42.95
2022-08-01T12:02:31.060Z,43.53
2022-08-01T12:03:34.798Z,43.91
2022-08-01T12:04:47.016Z,44.10
2022-08-01T12:05:49.905Z,44.07
2022-08-01T12:06:52.852Z,43.71
2022-08-01T12:07:57.225Z,43.17
2022-08-01T12:09:15.929Z,42.47
2022-08-01T12:10:20.395Z,42.72
2022-08-01T12:11:23.340Z,42.59
2022-08-01T12:12:26.332Z,42.26
2022-08-01T12:13:31.264Z,42.63
2022-08-01T12:14:34.136Z,42.01
2022-08-01T12:15:39.569Z,41.96
2022-08-01T12:16:48.962Z,41.67
2022-08-01T12:17:58.484Z,41.67
2022-08-01T12:19:02.461Z,41.25
2022-08-01T12:20:06.888Z,41.40
2022-08-01T12:21:09.810Z,41.48
2022-08-01T12:22:14.700Z,41.14
2022-08-01T12:23:17.977Z,40.52
2022-08-01T12:24:24.868Z,40.60
2022-08-01T12:25:27.839Z,40.54
2022-08-01T12:26:40.997Z,40.45
2022-08-01T12:27:45.235Z,40.04
2022-08-01T12:28:48.312Z,39.78
2022-08-01T12:29:51.540Z,40.18
2022-08-01T12:30:54.442Z,39.83
2022-08-01T12:31:57.937Z,39.67
2022-08-01T12:33:00.904Z,39.65
2022-08-01T12:34:22.350Z,39.66
2022-08-01T12:35:26.680Z,39.37
2022-08-01T12:36:29.924Z,38.11
2022-08-01T12:37:37.126Z,38.62
2022-08-01T12:38:39.997Z,38.61
2022-08-01T12:39:43.035Z,38.04
2022-08-01T12:40:47.548Z,38.17
2022-08-01T12:41:54.796Z,37.82
2022-08-01T12:43:03.237Z,36.95
2022-08-01T12:44:14.101Z,36.50
2022-08-01T12:45:18.584Z,36.97
2022-08-01T12:46:22.666Z,36.58
2022-08-01T12:47:25.696Z,36.18
2022-08-01T12:48:29.173Z,36.28
2022-08-01T12:49:33.518Z,36.28
2022-08-01T12:50:37.950Z,35.87
2022-08-01T12:51:41.315Z,35.44
2022-08-01T12:52:45.075Z,35.52
2022-08-01T12:53:48.905Z,35.16
2022-08-01T12:55:06.459Z,35.40
2022-08-01T12:56:13.022Z,35.29
2022-08-01T12:57:25.283Z,34.72
2022-08-01T12:58:32.105Z,33.67
2022-08-01T12:59:35.244Z,33.92
2022-08-01T13:00:40.662Z,33.96
2022-08-01T13:01:44.246Z,34.16
2022-08-01T13:02:48.028Z,33.68
2022-08-01T13:04:02.298Z,32.84
2022-08-01T13:05:05.525Z,33.03
2022-08-01T13:06:16.490Z,33.00
2022-08-01T13:07:20.215Z,32.74
2022-08-01T13:08:24.686Z,32.94
2022-08-01T13:09:27.698Z,32.27
2022-08-01T13:10:31.732Z,32.21
2022-08-01T13:11:34.688Z,32.12
2022-08-01T13:12:38.587Z,32.26
2022-08-01T13:13:52.197Z,32.30
2022-08-01T13:14:56.018Z,31.59
2022-08-01T13:16:06.559Z,32.15
2022-08-01T13:17:09.628Z,32.01
2022-08-01T13:18:24.889Z,31.75
2022-08-01T13:19:49.567Z,31.35
2022-08-01T13:21:08.292Z,31.38
2022-08-01T13:22:11.554Z,31.43
2022-08-01T13:23:21.350Z,31.62
2022-08-01T13:24:41.777Z,31.78
2022-08-01T13:25:54.990Z,31.00
2022-08-01T13:27:04.137Z,31.16
2022-08-01T13:28:39.341Z,31.12
2022-08-01T13:29:42.792Z,30.98
2022-08-01T13:30:52.582Z,30.18
2022-08-01T13:31:55.482Z,30.31
2022-08-01T13:33:01.858Z,30.58
2022-08-01T13:34:07.575Z,30.82
2022-08-01T13:35:15.817Z,30.70
2022-08-01T13:36:18.916Z,30.56
2022-08-01T13:37:31.225Z,30.57
2022-08-01T13:38:53.744Z,30.27
2022-08-01T13:39:56.593Z,30.43
2022-08-01T13:40:59.870Z,30.02
2022-08-01T13:42:03.805Z,29.95
2022-08-01T13:43:07.116Z,29.93
2022-08-01T13:44:11.580Z,30.02
2022-08-01T13:45:15.221Z,29.77
2022-08-01T13:46:18.795Z,29.66
2022-08-01T13:47:31.510Z,29.87
2022-08-01T13:48:35.727Z,29.20
2022-08-01T13:49:40.997Z,29.13
2022-08-01T13:50:43.974Z,29.18
2022-08-01T13:51:47.530Z,29.04
2022-08-01T13:52:50.703Z,28.68
2022-08-01T13:53:53.879Z,28.68
2022-08-01T13:54:56.862Z,28.90
2022-08-01T13:55:59.794Z,28.75
2022-08-01T13:57:03.123Z,28.51
2022-08-01T13:58:06.607Z,28.34
2022-08-01T13:59:09.638Z,28.13
2022-08-01T14:00:12.840Z,28.81
2022-08-01T14:01:16.162Z,28.33
2022-08-01T14:02:19.166Z,28.54
2022-08-01T14:03:23.181Z,28.69
2022-08-01T14:04:36.690Z,28.24
2022-08-01T14:05:40.632Z,28.24
2022-08-01T14:06:43.616Z,28.70
2022-08-01T14:07:48.643Z,28.48
2022-08-01T14:08:52.018Z,27.96
2022-08-01T14:10:04.485Z,27.61
2022-08-01T14:11:18.482Z,27.63
2022-08-01T14:12:24.500Z,28.02
2022-08-01T14:13:32.131Z,28.19
2022-08-01T14:14:39.822Z,27.76
2022-08-01T14:15:42.702Z,27.92
2022-08-01T14:16:46.899Z,28.22
2022-08-01T14:17:49.903Z,28.66